Thurso, Canada
Current Conditions -  °F | °C
As of 9:00 AM on Thursday 29 Jan 2015 (Local Time) from CYND Reporting Station
Overcast Overcast  
Wind Chill: -11°   Ceiling: 10000
Heat Index:   Visibility: 15mi
Dew Point: -4°   Wind: 7mph
Humidity: 78%   Direction: 100°E
Pressure: 30.22"   Gusts: NA
Location:  45.58°N, 75.23°W
Report Text: CYND 291400Z 10006KT 15SM OVC100 M17/M20 A3022 RMK AC8 SLP240
Loading
Personal Weather Stations






























Interactive Weather Map New forecast layout! Learn more

10-Day Weather Forecast

Advertisements
Track Severe Weather on mobile